createdAt,value
2017-11-07T00:00:40.359Z,56.79
2017-11-07T00:01:40.346Z,56.88
2017-11-07T00:02:40.350Z,56.98
2017-11-07T00:03:40.338Z,56.88
2017-11-07T00:04:40.329Z,56.79
2017-11-07T00:05:40.320Z,56.79
2017-11-07T00:06:40.315Z,56.79
2017-11-07T00:07:40.314Z,57.27
2017-11-07T00:08:40.312Z,56.69
2017-11-07T00:09:40.299Z,56.79
2017-11-07T00:10:40.296Z,57.17
2017-11-07T00:11:40.288Z,56.79
2017-11-07T00:12:40.284Z,56.98
2017-11-07T00:13:40.281Z,56.98
2017-11-07T00:14:40.272Z,56.98
2017-11-07T00:15:40.271Z,56.79
2017-11-07T00:16:40.264Z,56.88
2017-11-07T00:17:40.257Z,56.98
2017-11-07T00:18:40.246Z,56.98
2017-11-07T00:19:40.242Z,57.07
2017-11-07T00:20:40.237Z,57.17
2017-11-07T00:21:40.231Z,57.07
2017-11-07T00:22:40.236Z,56.79
2017-11-07T00:23:40.221Z,56.98
2017-11-07T00:24:40.244Z,57.07
2017-11-07T00:25:40.210Z,56.79
2017-11-07T00:26:40.201Z,56.79
2017-11-07T00:27:40.196Z,56.79
2017-11-07T00:28:40.193Z,56.88
2017-11-07T00:29:40.188Z,56.88
2017-11-07T00:30:40.182Z,56.88
2017-11-07T00:31:40.177Z,56.88
2017-11-07T00:32:40.174Z,56.88
2017-11-07T00:33:40.165Z,56.88
2017-11-07T00:34:40.156Z,56.98
2017-11-07T00:35:40.155Z,56.98
2017-11-07T00:36:40.155Z,57.07
2017-11-07T00:37:40.143Z,56.98
2017-11-07T00:38:40.139Z,56.98
2017-11-07T00:39:40.138Z,56.88
2017-11-07T00:40:40.126Z,56.98
2017-11-07T00:41:40.119Z,56.98
2017-11-07T00:42:40.123Z,56.88
2017-11-07T00:43:40.108Z,56.88
2017-11-07T00:44:40.108Z,56.59
2017-11-07T00:45:40.097Z,56.88
2017-11-07T00:46:40.092Z,56.98
2017-11-07T00:47:40.088Z,56.88
2017-11-07T00:48:40.090Z,56.88
2017-11-07T00:49:40.082Z,56.98
2017-11-07T00:50:40.075Z,56.98
2017-11-07T00:51:40.064Z,56.98
2017-11-07T00:52:40.061Z,56.98
2017-11-07T00:53:40.053Z,56.88
2017-11-07T00:54:40.048Z,56.59
2017-11-07T00:55:40.044Z,56.88
2017-11-07T00:56:40.043Z,56.59
2017-11-07T00:57:40.035Z,56.79
2017-11-07T00:58:40.029Z,56.79
2017-11-07T00:59:40.018Z,56.79
2017-11-07T01:00:40.013Z,56.69
2017-11-07T01:01:40.008Z,56.59
2017-11-07T01:02:40.004Z,56.88
2017-11-07T01:03:39.998Z,56.98
2017-11-07T01:04:39.993Z,56.88
2017-11-07T01:05:39.987Z,56.88
2017-11-07T01:06:39.996Z,57.07
2017-11-07T01:07:39.978Z,56.98
2017-11-07T01:08:39.970Z,57.07
2017-11-07T01:09:39.965Z,56.98
2017-11-07T01:10:39.959Z,56.98
2017-11-07T01:11:39.954Z,56.98
2017-11-07T01:12:39.949Z,57.27
2017-11-07T01:13:39.943Z,56.79
2017-11-07T01:14:39.932Z,56.59
2017-11-07T01:15:39.932Z,56.79
2017-11-07T01:16:39.923Z,56.79
2017-11-07T01:17:39.925Z,56.69
2017-11-07T01:18:39.913Z,56.69
2017-11-07T01:19:39.914Z,56.69
2017-11-07T01:20:39.906Z,56.69
2017-11-07T01:21:39.900Z,56.59
2017-11-07T01:22:39.893Z,56.88
2017-11-07T01:23:39.887Z,56.79
2017-11-07T01:24:39.883Z,56.69
2017-11-07T01:25:39.876Z,56.88
2017-11-07T01:26:39.873Z,56.88
2017-11-07T01:27:39.863Z,56.69
2017-11-07T01:28:39.863Z,56.88
2017-11-07T01:29:39.861Z,56.88
2017-11-07T01:30:39.845Z,56.88
2017-11-07T01:31:39.843Z,56.79
2017-11-07T01:32:39.834Z,56.88
2017-11-07T01:33:39.835Z,56.69
2017-11-07T01:34:39.836Z,56.69
2017-11-07T01:35:39.828Z,56.69
2017-11-07T01:36:39.815Z,56.69
2017-11-07T01:37:39.811Z,56.88
2017-11-07T01:38:39.804Z,56.69
2017-11-07T01:39:39.797Z,56.88
2017-11-07T01:40:39.796Z,56.79
2017-11-07T01:41:39.790Z,56.79
2017-11-07T01:42:39.783Z,57.07
2017-11-07T01:43:39.778Z,56.88
2017-11-07T01:44:39.768Z,57.07
2017-11-07T01:45:39.772Z,57.07
2017-11-07T01:46:39.780Z,56.49
2017-11-07T01:47:39.753Z,56.88
2017-11-07T01:48:39.761Z,57.05
2017-11-07T01:49:39.748Z,57.07
2017-11-07T01:50:39.740Z,57.07
2017-11-07T01:51:39.734Z,56.88
2017-11-07T01:52:39.748Z,56.49
2017-11-07T01:53:39.722Z,57.07
2017-11-07T01:54:39.716Z,57.07
2017-11-07T01:55:39.715Z,56.37
2017-11-07T01:56:39.705Z,56.30
2017-11-07T01:57:39.697Z,57.07
2017-11-07T01:58:39.692Z,56.47
2017-11-07T01:59:39.687Z,57.07
2017-11-07T02:00:39.683Z,56.37
2017-11-07T02:01:39.675Z,56.49
2017-11-07T02:02:39.673Z,57.07
2017-11-07T02:03:39.664Z,57.07
2017-11-07T02:04:39.662Z,56.49
2017-11-07T02:05:39.651Z,56.40
2017-11-07T02:06:39.649Z,56.88
2017-11-07T02:07:39.641Z,56.30
2017-11-07T02:08:39.639Z,56.40
2017-11-07T02:09:39.635Z,56.37
2017-11-07T02:10:39.626Z,56.40
2017-11-07T02:11:39.621Z,56.40
2017-11-07T02:12:39.614Z,56.59
2017-11-07T02:13:39.610Z,56.49
2017-11-07T02:14:39.610Z,56.57
2017-11-07T02:15:39.599Z,56.40
2017-11-07T02:16:39.598Z,57.07
2017-11-07T02:17:39.587Z,56.37
2017-11-07T02:18:39.583Z,56.37
2017-11-07T02:19:39.590Z,56.49
2017-11-07T02:20:39.568Z,56.37
2017-11-07T02:21:39.562Z,56.66
2017-11-07T02:22:39.561Z,56.59
2017-11-07T02:23:39.562Z,56.27
2017-11-07T02:24:39.548Z,56.49
2017-11-07T02:25:39.544Z,56.27
2017-11-07T02:26:39.538Z,56.30
2017-11-07T02:27:39.532Z,56.47
2017-11-07T02:28:39.529Z,56.49
2017-11-07T02:29:39.522Z,56.47
2017-11-07T02:30:39.514Z,56.59
2017-11-07T02:31:39.511Z,56.69
2017-11-07T02:32:39.503Z,56.69
2017-11-07T02:33:39.501Z,56.66
2017-11-07T02:34:39.494Z,56.47
2017-11-07T02:35:39.491Z,56.47
2017-11-07T02:36:39.485Z,56.57
2017-11-07T02:37:39.476Z,56.69
2017-11-07T02:38:39.471Z,56.59
2017-11-07T02:39:39.475Z,56.66
2017-11-07T02:40:39.464Z,56.27
2017-11-07T02:41:39.461Z,56.49
2017-11-07T02:42:39.452Z,56.47
2017-11-07T02:43:39.442Z,56.66
2017-11-07T02:44:39.437Z,56.37
2017-11-07T02:45:39.433Z,56.57
2017-11-07T02:46:39.427Z,56.37
2017-11-07T02:47:39.420Z,56.47
2017-11-07T02:48:39.421Z,56.37
2017-11-07T02:49:39.411Z,56.47
2017-11-07T02:50:39.407Z,56.27
2017-11-07T02:51:39.396Z,56.40
2017-11-07T02:52:39.396Z,56.47
2017-11-07T02:53:39.391Z,56.37
2017-11-07T02:54:39.381Z,56.57
2017-11-07T02:55:39.376Z,56.09
2017-11-07T02:56:39.387Z,56.37
2017-11-07T02:57:39.369Z,56.18
2017-11-07T02:58:39.360Z,56.37
2017-11-07T02:59:39.352Z,56.27
2017-11-07T03:00:39.348Z,56.27
2017-11-07T03:01:39.344Z,56.18
2017-11-07T03:02:39.337Z,56.27
2017-11-07T03:03:39.333Z,56.18
2017-11-07T03:04:39.324Z,56.37
2017-11-07T03:05:39.320Z,56.37
2017-11-07T03:06:39.320Z,56.18
2017-11-07T03:07:39.310Z,56.37
2017-11-07T03:08:39.309Z,56.37
2017-11-07T03:09:39.301Z,56.37
2017-11-07T03:10:39.293Z,56.37
2017-11-07T03:11:39.285Z,56.37
2017-11-07T03:12:39.283Z,56.47
2017-11-07T03:13:39.283Z,56.47
2017-11-07T03:14:39.272Z,56.37
2017-11-07T03:15:39.263Z,56.47
2017-11-07T03:16:39.261Z,56.47
2017-11-07T03:17:39.255Z,56.37
2017-11-07T03:18:39.263Z,56.47
2017-11-07T03:19:39.247Z,56.37
2017-11-07T03:20:39.236Z,56.18
2017-11-07T03:21:39.235Z,56.27
2017-11-07T03:22:39.225Z,56.18
2017-11-07T03:23:39.219Z,56.18
2017-11-07T03:24:39.215Z,56.37
2017-11-07T03:25:39.206Z,56.27
2017-11-07T03:26:39.208Z,56.09
2017-11-07T03:27:39.197Z,55.99
2017-11-07T03:28:39.190Z,56.18
2017-11-07T03:29:39.189Z,56.27
2017-11-07T03:30:39.186Z,56.18
2017-11-07T03:31:39.174Z,55.89
2017-11-07T03:32:39.169Z,56.18
2017-11-07T03:33:39.164Z,55.79
2017-11-07T03:34:39.163Z,56.18
2017-11-07T03:35:39.151Z,56.09
2017-11-07T03:36:39.150Z,56.09
2017-11-07T03:37:39.140Z,56.09
2017-11-07T03:38:39.137Z,56.09
2017-11-07T03:39:39.130Z,55.89
2017-11-07T03:40:39.126Z,56.09
2017-11-07T03:41:39.116Z,55.89
2017-11-07T03:42:39.112Z,55.99
2017-11-07T03:43:39.114Z,56.09
2017-11-07T03:44:39.102Z,55.89
2017-11-07T03:45:39.096Z,55.89
2017-11-07T03:46:39.090Z,55.89
2017-11-07T03:47:39.084Z,56.09
2017-11-07T03:48:39.078Z,56.18
2017-11-07T03:49:39.074Z,55.89
2017-11-07T03:50:39.067Z,56.18
2017-11-07T03:51:39.069Z,56.09
2017-11-07T03:52:39.058Z,56.18
2017-11-07T03:53:39.054Z,56.18
2017-11-07T03:54:39.071Z,56.27
2017-11-07T03:55:39.047Z,56.09
2017-11-07T03:56:39.035Z,56.27
2017-11-07T03:57:39.029Z,56.27
2017-11-07T03:58:39.022Z,56.09
2017-11-07T03:59:39.016Z,56.27
2017-11-07T04:00:39.016Z,56.27
2017-11-07T04:01:39.005Z,56.09
2017-11-07T04:02:39.006Z,56.21
2017-11-07T04:03:38.996Z,56.21
2017-11-07T04:04:38.999Z,55.82
2017-11-07T04:05:38.985Z,55.79
2017-11-07T04:06:38.981Z,55.63
2017-11-07T04:07:38.973Z,55.73
2017-11-07T04:08:39.144Z,55.63
2017-11-07T04:09:38.960Z,55.92
2017-11-07T04:10:38.958Z,55.82
2017-11-07T04:11:38.955Z,55.44
2017-11-07T04:12:38.946Z,55.63
2017-11-07T04:13:38.933Z,55.44
2017-11-07T04:14:38.931Z,55.54
2017-11-07T04:15:38.926Z,55.44
2017-11-07T04:16:38.921Z,55.73
2017-11-07T04:17:38.920Z,55.63
2017-11-07T04:18:38.915Z,55.63
2017-11-07T04:19:38.904Z,55.63
2017-11-07T04:20:38.896Z,55.63
2017-11-07T04:21:38.894Z,55.54
2017-11-07T04:22:38.893Z,55.73
2017-11-07T04:23:38.883Z,55.24
2017-11-07T04:24:38.878Z,55.34
2017-11-07T04:25:38.874Z,55.34
2017-11-07T04:26:38.871Z,54.96
2017-11-07T04:27:38.860Z,55.27
2017-11-07T04:28:38.859Z,55.15
2017-11-07T04:29:38.852Z,55.34
2017-11-07T04:30:38.846Z,54.98
2017-11-07T04:31:38.838Z,55.24
2017-11-07T04:32:38.830Z,55.18
2017-11-07T04:33:38.829Z,55.36
2017-11-07T04:34:38.825Z,55.36
2017-11-07T04:35:38.824Z,55.27
2017-11-07T04:36:38.810Z,55.18
2017-11-07T04:37:38.806Z,55.36
2017-11-07T04:38:38.800Z,55.18
2017-11-07T04:39:38.795Z,55.34
2017-11-07T04:40:38.792Z,55.56
2017-11-07T04:41:38.785Z,55.24
2017-11-07T04:42:38.777Z,55.08
2017-11-07T04:43:38.776Z,54.98
2017-11-07T04:44:38.778Z,55.27
2017-11-07T04:45:38.764Z,55.24
2017-11-07T04:46:38.765Z,55.24
2017-11-07T04:47:38.751Z,55.27
2017-11-07T04:48:38.750Z,55.24
2017-11-07T04:49:38.742Z,55.36
2017-11-07T04:50:38.733Z,55.27
2017-11-07T04:51:38.729Z,55.82
2017-11-07T04:52:38.726Z,55.82
2017-11-07T04:53:38.725Z,55.76
2017-11-07T04:54:38.712Z,55.73
2017-11-07T04:55:38.708Z,55.63
2017-11-07T04:56:38.699Z,55.24
2017-11-07T04:57:38.695Z,55.15
2017-11-07T04:58:38.694Z,55.15
2017-11-07T04:59:38.682Z,54.86
2017-11-07T05:00:38.675Z,54.76
2017-11-07T05:01:38.670Z,54.86
2017-11-07T05:02:38.667Z,54.38
2017-11-07T05:03:38.657Z,53.99
2017-11-07T05:04:38.650Z,53.89
2017-11-07T05:05:38.642Z,53.99
2017-11-07T05:06:38.636Z,53.89
2017-11-07T05:07:38.633Z,53.99
2017-11-07T05:08:38.629Z,53.51
2017-11-07T05:09:38.619Z,53.31
2017-11-07T05:10:38.614Z,53.61
2017-11-07T05:11:38.607Z,53.61
2017-11-07T05:12:38.598Z,53.22
2017-11-07T05:13:38.591Z,52.83
2017-11-07T05:14:38.584Z,52.83
2017-11-07T05:15:38.577Z,53.05
2017-11-07T05:16:38.572Z,53.31
2017-11-07T05:17:38.579Z,52.86
2017-11-07T05:18:38.571Z,52.57
2017-11-07T05:19:38.551Z,52.76
2017-11-07T05:20:38.545Z,52.57
2017-11-07T05:21:38.539Z,52.57
2017-11-07T05:22:38.539Z,52.28
2017-11-07T05:23:38.523Z,52.28
2017-11-07T05:24:38.518Z,52.19
2017-11-07T05:25:38.524Z,51.99
2017-11-07T05:26:38.514Z,52.19
2017-11-07T05:27:38.505Z,52.28
2017-11-07T05:28:38.491Z,52.09
2017-11-07T05:29:38.484Z,52.09
2017-11-07T05:30:38.475Z,52.19
2017-11-07T05:31:38.478Z,52.37
2017-11-07T05:32:38.466Z,52.28
2017-11-07T05:33:38.459Z,52.57
2017-11-07T05:34:38.451Z,52.28
2017-11-07T05:35:38.445Z,52.57
2017-11-07T05:36:38.442Z,52.37
2017-11-07T05:37:38.434Z,52.28
2017-11-07T05:38:38.434Z,52.37
2017-11-07T05:39:38.422Z,52.09
2017-11-07T05:40:38.409Z,52.37
2017-11-07T05:41:38.413Z,52.37
2017-11-07T05:42:38.400Z,52.37
2017-11-07T05:43:38.386Z,52.09
2017-11-07T05:44:38.382Z,51.99
2017-11-07T05:45:38.383Z,51.99
2017-11-07T05:46:38.372Z,51.99
2017-11-07T05:47:38.363Z,51.99
2017-11-07T05:48:38.358Z,52.09
2017-11-07T05:49:38.351Z,51.99
2017-11-07T05:50:38.343Z,52.28
2017-11-07T05:51:38.338Z,52.28
2017-11-07T05:52:38.331Z,52.19
2017-11-07T05:53:38.329Z,51.99
2017-11-07T05:54:38.318Z,52.19
2017-11-07T05:55:38.318Z,52.19
2017-11-07T05:56:38.308Z,52.47
2017-11-07T05:57:38.296Z,52.47
2017-11-07T05:58:38.289Z,52.57
2017-11-07T05:59:38.284Z,52.28
2017-11-07T06:00:38.288Z,52.28
2017-11-07T06:01:38.276Z,52.28
2017-11-07T06:02:38.263Z,52.09
2017-11-07T06:03:38.256Z,52.19
2017-11-07T06:04:38.396Z,52.28
2017-11-07T06:05:38.242Z,52.67
2017-11-07T06:06:38.237Z,52.28
2017-11-07T06:07:38.230Z,52.28
2017-11-07T06:08:38.232Z,52.09
2017-11-07T06:09:38.217Z,52.47
2017-11-07T06:10:38.208Z,52.57
2017-11-07T06:11:38.200Z,52.83
2017-11-07T06:12:38.198Z,52.64
2017-11-07T06:13:38.183Z,52.67
2017-11-07T06:14:38.184Z,52.67
2017-11-07T06:15:38.179Z,52.73
2017-11-07T06:16:38.168Z,52.64
2017-11-07T06:17:38.160Z,52.55
2017-11-07T06:18:38.155Z,52.67
2017-11-07T06:19:38.147Z,52.73
2017-11-07T06:20:38.140Z,52.64
2017-11-07T06:21:38.135Z,52.55
2017-11-07T06:22:38.129Z,52.57
2017-11-07T06:23:38.119Z,52.64
2017-11-07T06:24:38.120Z,52.67
2017-11-07T06:25:38.100Z,52.47
2017-11-07T06:26:38.100Z,52.47
2017-11-07T06:27:38.097Z,52.67
2017-11-07T06:28:38.085Z,52.67
2017-11-07T06:29:38.083Z,52.67
2017-11-07T06:30:38.077Z,52.67
2017-11-07T06:31:38.066Z,52.57
2017-11-07T06:32:38.059Z,52.57
2017-11-07T06:33:38.055Z,52.57
2017-11-07T06:34:38.045Z,52.57
2017-11-07T06:35:38.037Z,52.57
2017-11-07T06:36:38.033Z,52.67
2017-11-07T06:37:38.025Z,52.67
2017-11-07T06:38:38.024Z,52.67
2017-11-07T06:39:38.010Z,52.37
2017-11-07T06:40:38.001Z,52.37
2017-11-07T06:41:37.997Z,52.76
2017-11-07T06:42:37.992Z,52.37
2017-11-07T06:43:37.985Z,52.47
2017-11-07T06:44:37.989Z,52.76
2017-11-07T06:45:37.970Z,52.86
2017-11-07T06:46:37.969Z,52.76
2017-11-07T06:47:37.955Z,53.15
2017-11-07T06:48:37.953Z,53.15
2017-11-07T06:49:37.943Z,53.34
2017-11-07T06:50:37.937Z,53.22
2017-11-07T06:51:37.932Z,53.25
2017-11-07T06:52:37.925Z,53.05
2017-11-07T06:53:37.915Z,53.25
2017-11-07T06:54:37.913Z,52.67
2017-11-07T06:55:37.898Z,52.93
2017-11-07T06:56:37.895Z,52.95
2017-11-07T06:57:37.889Z,52.95
2017-11-07T06:58:37.888Z,52.95
2017-11-07T06:59:37.879Z,53.15
2017-11-07T07:00:37.877Z,53.15
2017-11-07T07:01:37.861Z,53.15
2017-11-07T07:02:37.859Z,53.13
2017-11-07T07:03:37.850Z,52.67
2017-11-07T07:04:37.846Z,52.76
2017-11-07T07:05:37.839Z,52.86
2017-11-07T07:06:37.828Z,52.86
2017-11-07T07:07:37.829Z,52.83
2017-11-07T07:08:37.814Z,52.86
2017-11-07T07:09:37.807Z,52.83
2017-11-07T07:10:37.797Z,52.83
2017-11-07T07:11:37.791Z,52.95
2017-11-07T07:12:37.790Z,52.86
2017-11-07T07:13:37.782Z,52.93
2017-11-07T07:14:37.772Z,52.73
2017-11-07T07:15:37.763Z,52.95
2017-11-07T07:16:37.758Z,52.83
2017-11-07T07:17:37.752Z,52.83
2017-11-07T07:18:37.746Z,52.95
2017-11-07T07:19:37.740Z,52.86
2017-11-07T07:20:37.730Z,53.15
2017-11-07T07:21:37.725Z,52.86
2017-11-07T07:22:37.722Z,52.86
2017-11-07T07:23:37.705Z,52.86
2017-11-07T07:24:37.703Z,53.13
2017-11-07T07:25:37.700Z,52.73
2017-11-07T07:26:37.697Z,52.86
2017-11-07T07:27:37.681Z,52.86
2017-11-07T07:28:37.677Z,52.86
2017-11-07T07:29:37.669Z,52.95
2017-11-07T07:30:37.662Z,52.86
2017-11-07T07:31:37.655Z,52.76
2017-11-07T07:32:37.650Z,52.86
2017-11-07T07:33:37.641Z,53.05
2017-11-07T07:34:37.638Z,52.86
2017-11-07T07:35:37.626Z,52.86
2017-11-07T07:36:37.622Z,52.86
2017-11-07T07:37:37.615Z,53.15
2017-11-07T07:38:37.607Z,52.86
2017-11-07T07:39:37.601Z,52.86
2017-11-07T07:40:37.597Z,52.86
2017-11-07T07:41:37.587Z,52.67
2017-11-07T07:42:37.580Z,53.15
2017-11-07T07:43:37.572Z,53.15
2017-11-07T07:44:37.587Z,52.86
2017-11-07T07:45:37.560Z,53.25
2017-11-07T07:46:37.551Z,53.25
2017-11-07T07:47:37.551Z,53.25
2017-11-07T07:48:37.539Z,53.05
2017-11-07T07:49:37.536Z,53.15
2017-11-07T07:50:37.525Z,53.05
2017-11-07T07:51:37.521Z,53.25
2017-11-07T07:52:37.510Z,53.05
2017-11-07T07:53:37.504Z,53.34
2017-11-07T07:54:37.500Z,53.34
2017-11-07T07:55:37.496Z,53.34
2017-11-07T07:56:37.483Z,53.34
2017-11-07T07:57:37.476Z,53.44
2017-11-07T07:58:37.470Z,53.44
2017-11-07T07:59:37.462Z,53.25
2017-11-07T08:00:37.455Z,53.25
2017-11-07T08:01:37.453Z,53.25
2017-11-07T08:02:37.452Z,53.25
2017-11-07T08:03:37.442Z,53.83
2017-11-07T08:04:37.428Z,53.25
2017-11-07T08:05:37.422Z,53.83
2017-11-07T08:06:37.416Z,53.25
2017-11-07T08:07:37.409Z,53.25
2017-11-07T08:08:37.401Z,53.34
2017-11-07T08:09:37.401Z,53.92
2017-11-07T08:10:37.389Z,53.34
2017-11-07T08:11:37.381Z,53.80
2017-11-07T08:12:37.374Z,53.92
2017-11-07T08:13:37.367Z,53.51
2017-11-07T08:14:37.360Z,53.34
2017-11-07T08:15:37.356Z,53.53
2017-11-07T08:16:37.354Z,53.63
2017-11-07T08:17:37.340Z,53.73
2017-11-07T08:18:37.335Z,53.63
2017-11-07T08:19:37.330Z,53.73
2017-11-07T08:20:37.317Z,53.73
2017-11-07T08:21:37.320Z,53.73
2017-11-07T08:22:37.307Z,53.73
2017-11-07T08:23:37.302Z,53.73
2017-11-07T08:24:37.293Z,53.44
2017-11-07T08:25:37.287Z,53.73
2017-11-07T08:26:37.286Z,53.53
2017-11-07T08:27:37.270Z,53.73
2017-11-07T08:28:37.266Z,53.73
2017-11-07T08:29:37.257Z,53.44
2017-11-07T08:30:37.260Z,53.73
2017-11-07T08:31:37.245Z,53.63
2017-11-07T08:32:37.236Z,53.83
2017-11-07T08:33:37.233Z,53.73
2017-11-07T08:34:37.220Z,53.83
2017-11-07T08:35:37.217Z,53.83
2017-11-07T08:36:37.210Z,53.83
2017-11-07T08:37:37.210Z,53.73
2017-11-07T08:38:37.198Z,53.83
2017-11-07T08:39:37.190Z,53.83
2017-11-07T08:40:37.182Z,53.25
2017-11-07T08:41:37.177Z,53.15
2017-11-07T08:42:37.169Z,53.83
2017-11-07T08:43:37.164Z,53.25
2017-11-07T08:44:37.157Z,53.63
2017-11-07T08:45:37.149Z,53.25
2017-11-07T08:46:37.141Z,53.83
2017-11-07T08:47:37.135Z,53.15
2017-11-07T08:48:37.132Z,53.25
2017-11-07T08:49:37.119Z,53.34
2017-11-07T08:50:37.118Z,52.95
2017-11-07T08:51:37.109Z,53.44
2017-11-07T08:52:37.102Z,53.34
2017-11-07T08:53:37.100Z,53.15
2017-11-07T08:54:37.088Z,53.73
2017-11-07T08:55:37.081Z,53.25
2017-11-07T08:56:37.074Z,53.25
2017-11-07T08:57:37.065Z,53.25
2017-11-07T08:58:37.062Z,53.25
2017-11-07T08:59:37.054Z,53.25
2017-11-07T09:00:37.052Z,53.25
2017-11-07T09:01:37.040Z,53.25
2017-11-07T09:02:37.034Z,53.25
2017-11-07T09:03:37.028Z,53.34
2017-11-07T09:04:37.018Z,53.34
2017-11-07T09:05:37.017Z,53.25
2017-11-07T09:06:37.011Z,53.34
2017-11-07T09:07:36.998Z,53.25
2017-11-07T09:08:36.994Z,53.25
2017-11-07T09:09:36.985Z,53.25
2017-11-07T09:10:36.982Z,53.34
2017-11-07T09:11:36.972Z,53.34
2017-11-07T09:12:36.964Z,53.34
2017-11-07T09:13:36.962Z,53.25
2017-11-07T09:14:36.952Z,53.34
2017-11-07T09:15:36.948Z,53.34
2017-11-07T09:16:36.951Z,53.25
2017-11-07T09:17:36.932Z,53.25
2017-11-07T09:18:36.923Z,53.25
2017-11-07T09:19:36.919Z,53.05
2017-11-07T09:20:36.919Z,53.15
2017-11-07T09:21:36.907Z,53.25
2017-11-07T09:22:36.904Z,52.95
2017-11-07T09:23:36.913Z,53.15
2017-11-07T09:24:36.884Z,52.76
2017-11-07T09:25:36.878Z,52.76
2017-11-07T09:26:36.872Z,52.86
2017-11-07T09:27:36.863Z,52.95
2017-11-07T09:28:36.857Z,52.95
2017-11-07T09:29:36.857Z,52.67
2017-11-07T09:30:36.843Z,52.86
2017-11-07T09:31:36.836Z,52.86
2017-11-07T09:32:36.828Z,52.95
2017-11-07T09:33:36.823Z,52.86
2017-11-07T09:34:36.817Z,52.95
2017-11-07T09:35:36.809Z,52.86
2017-11-07T09:36:36.806Z,52.95
2017-11-07T09:37:36.817Z,52.86
2017-11-07T09:38:36.790Z,52.76
2017-11-07T09:39:36.784Z,52.86
2017-11-07T09:40:36.776Z,52.95
2017-11-07T09:41:36.770Z,52.86
2017-11-07T09:42:36.774Z,52.86
2017-11-07T09:43:36.759Z,53.15
2017-11-07T09:44:36.752Z,53.15
2017-11-07T09:45:36.745Z,52.86
2017-11-07T09:46:36.735Z,52.95
2017-11-07T09:47:36.728Z,53.15
2017-11-07T09:48:36.729Z,52.86
2017-11-07T09:49:36.728Z,52.95
2017-11-07T09:50:36.709Z,52.95
2017-11-07T09:51:36.704Z,52.95
2017-11-07T09:52:36.695Z,52.86
2017-11-07T09:53:36.689Z,52.95
2017-11-07T09:54:36.683Z,52.95
2017-11-07T09:55:36.676Z,52.86
2017-11-07T09:56:36.675Z,52.86
2017-11-07T09:57:36.662Z,52.86
2017-11-07T09:58:36.656Z,52.86
2017-11-07T09:59:36.648Z,52.86
2017-11-07T10:00:36.642Z,52.95
2017-11-07T10:01:36.648Z,52.86
2017-11-07T10:02:36.627Z,52.95
2017-11-07T10:03:36.626Z,53.15
2017-11-07T10:04:36.614Z,53.25
2017-11-07T10:05:36.607Z,53.25
2017-11-07T10:06:36.601Z,53.25
2017-11-07T10:07:36.593Z,53.05
2017-11-07T10:08:36.585Z,53.25
2017-11-07T10:09:36.580Z,52.95
2017-11-07T10:10:36.574Z,53.34
2017-11-07T10:11:36.574Z,52.86
2017-11-07T10:12:36.566Z,53.15
2017-11-07T10:13:36.555Z,53.05
2017-11-07T10:14:36.548Z,53.15
2017-11-07T10:15:36.544Z,53.34
2017-11-07T10:16:36.539Z,53.25
2017-11-07T10:17:36.528Z,53.25
2017-11-07T10:18:36.528Z,53.25
2017-11-07T10:19:36.512Z,53.25
2017-11-07T10:20:36.506Z,53.25
2017-11-07T10:21:36.502Z,53.34
2017-11-07T10:22:36.494Z,53.34
2017-11-07T10:23:36.486Z,53.92
2017-11-07T10:24:36.480Z,53.53
2017-11-07T10:25:36.486Z,53.92
2017-11-07T10:26:36.468Z,53.73
2017-11-07T10:27:36.459Z,53.83
2017-11-07T10:28:36.453Z,53.73
2017-11-07T10:29:36.447Z,53.63
2017-11-07T10:30:36.438Z,53.73
2017-11-07T10:31:36.442Z,53.63
2017-11-07T10:32:36.430Z,53.63
2017-11-07T10:33:36.419Z,53.63
2017-11-07T10:34:36.417Z,53.44
2017-11-07T10:35:36.408Z,53.73
2017-11-07T10:36:36.402Z,53.63
2017-11-07T10:37:36.393Z,53.63
2017-11-07T10:38:36.386Z,53.63
2017-11-07T10:39:36.388Z,53.53
2017-11-07T10:40:36.371Z,53.73
2017-11-07T10:41:36.365Z,53.73
2017-11-07T10:42:36.358Z,53.73
2017-11-07T10:43:36.347Z,53.73
2017-11-07T10:44:36.343Z,53.63
2017-11-07T10:45:36.338Z,53.53
2017-11-07T10:46:36.331Z,53.53
2017-11-07T10:47:36.324Z,53.63
2017-11-07T10:48:36.315Z,53.73
2017-11-07T10:49:36.310Z,53.34
2017-11-07T10:50:36.304Z,53.92
2017-11-07T10:51:36.298Z,53.63
2017-11-07T10:52:36.292Z,53.92
2017-11-07T10:53:36.283Z,53.73
2017-11-07T10:54:36.278Z,53.63
2017-11-07T10:55:36.273Z,53.63
2017-11-07T10:56:36.261Z,53.53
2017-11-07T10:57:36.250Z,53.53
2017-11-07T10:58:36.256Z,53.53
2017-11-07T10:59:36.241Z,53.73
2017-11-07T11:00:36.240Z,53.73
2017-11-07T11:01:36.234Z,53.44
2017-11-07T11:02:36.223Z,53.44
2017-11-07T11:03:36.216Z,53.53
2017-11-07T11:04:36.207Z,53.83
2017-11-07T11:05:36.206Z,53.53
2017-11-07T11:06:36.196Z,53.53
2017-11-07T11:07:36.190Z,53.53
2017-11-07T11:08:36.187Z,53.63
2017-11-07T11:09:36.177Z,53.34
2017-11-07T11:10:36.176Z,53.34
2017-11-07T11:11:36.163Z,53.53
2017-11-07T11:12:36.156Z,53.53
2017-11-07T11:13:36.147Z,53.44
2017-11-07T11:14:36.155Z,53.53
2017-11-07T11:15:36.137Z,53.44
2017-11-07T11:16:36.128Z,53.44
2017-11-07T11:17:36.146Z,53.53
2017-11-07T11:18:36.126Z,53.53
2017-11-07T11:19:36.108Z,53.44
2017-11-07T11:20:36.102Z,53.53
2017-11-07T11:21:36.093Z,53.53
2017-11-07T11:22:36.087Z,53.53
2017-11-07T11:23:36.082Z,53.53
2017-11-07T11:24:36.079Z,53.53
2017-11-07T11:25:36.067Z,53.34
2017-11-07T11:26:36.068Z,53.53
2017-11-07T11:27:36.050Z,53.34
2017-11-07T11:28:36.043Z,53.44
2017-11-07T11:29:36.043Z,53.44
2017-11-07T11:30:36.041Z,53.44
2017-11-07T11:31:36.027Z,53.53
2017-11-07T11:32:36.021Z,53.44
2017-11-07T11:33:36.013Z,53.53
2017-11-07T11:34:36.013Z,53.34
2017-11-07T11:35:35.999Z,53.34
2017-11-07T11:36:35.994Z,53.44
2017-11-07T11:37:35.994Z,53.44
2017-11-07T11:38:35.983Z,53.53
2017-11-07T11:39:35.974Z,53.44
2017-11-07T11:40:35.966Z,53.44
2017-11-07T11:41:35.966Z,53.63
2017-11-07T11:42:35.952Z,53.53
2017-11-07T11:43:35.943Z,53.53
2017-11-07T11:44:35.947Z,53.53
2017-11-07T11:45:35.932Z,53.73
2017-11-07T11:46:35.929Z,53.53
2017-11-07T11:47:35.921Z,53.63
2017-11-07T11:48:35.909Z,53.53
2017-11-07T11:49:35.904Z,53.44
2017-11-07T11:50:35.899Z,53.44
2017-11-07T11:51:35.911Z,53.44
2017-11-07T11:52:35.883Z,53.53
2017-11-07T11:53:35.886Z,53.53
2017-11-07T11:54:35.873Z,53.44
2017-11-07T11:55:35.863Z,53.53
2017-11-07T11:56:35.863Z,53.53
2017-11-07T11:57:35.854Z,53.53
2017-11-07T11:58:35.846Z,53.53
2017-11-07T11:59:35.837Z,53.53
2017-11-07T12:00:35.831Z,53.53
2017-11-07T12:01:35.823Z,53.53
2017-11-07T12:02:35.820Z,53.53
2017-11-07T12:03:35.810Z,53.53
2017-11-07T12:04:35.803Z,53.63
2017-11-07T12:05:35.804Z,53.53
2017-11-07T12:06:35.790Z,53.53
2017-11-07T12:07:35.788Z,53.44
2017-11-07T12:08:35.777Z,53.63
2017-11-07T12:09:35.776Z,53.44
2017-11-07T12:10:35.763Z,53.73
2017-11-07T12:11:35.755Z,53.44
2017-11-07T12:12:35.749Z,53.73
2017-11-07T12:13:35.747Z,53.63
2017-11-07T12:14:35.737Z,53.63
2017-11-07T12:15:35.730Z,53.63
2017-11-07T12:16:35.725Z,53.63
2017-11-07T12:17:35.715Z,53.63
2017-11-07T12:18:35.715Z,53.73
2017-11-07T12:19:35.703Z,53.63
2017-11-07T12:20:35.701Z,53.73
2017-11-07T12:21:35.691Z,53.63
2017-11-07T12:22:35.683Z,53.63
2017-11-07T12:23:35.678Z,53.66
2017-11-07T12:24:35.670Z,53.63
2017-11-07T12:25:35.661Z,53.73
2017-11-07T12:26:35.661Z,53.83
2017-11-07T12:27:35.654Z,53.66
2017-11-07T12:28:35.644Z,53.53
2017-11-07T12:29:35.637Z,53.53
2017-11-07T12:30:35.630Z,53.73
2017-11-07T12:31:35.622Z,53.73
2017-11-07T12:32:35.621Z,53.53
2017-11-07T12:33:35.610Z,53.63
2017-11-07T12:34:35.604Z,53.66
2017-11-07T12:35:35.595Z,53.75
2017-11-07T12:36:35.594Z,53.56
2017-11-07T12:37:35.582Z,53.63
2017-11-07T12:38:35.580Z,53.83
2017-11-07T12:39:35.573Z,53.63
2017-11-07T12:40:35.562Z,53.66
2017-11-07T12:41:35.559Z,53.63
2017-11-07T12:42:35.554Z,53.73
2017-11-07T12:43:35.542Z,53.73
2017-11-07T12:44:35.535Z,53.63
2017-11-07T12:45:35.532Z,53.73
2017-11-07T12:46:35.522Z,53.63
2017-11-07T12:47:35.518Z,53.63
2017-11-07T12:48:35.508Z,53.73
2017-11-07T12:49:35.509Z,53.66
2017-11-07T12:50:35.495Z,53.63
2017-11-07T12:51:35.497Z,53.92
2017-11-07T12:52:35.480Z,53.73